createdAt,value
2022-12-25T00:01:33.495Z,100263.94
2022-12-25T00:04:01.266Z,100267.41
2022-12-25T00:06:28.796Z,100270.00
2022-12-25T00:08:56.159Z,100276.03
2022-12-25T00:11:23.842Z,100275.94
2022-12-25T00:13:51.271Z,100277.66
2022-12-25T00:16:21.110Z,100291.47
2022-12-25T00:18:48.993Z,100292.38
2022-12-25T00:21:16.481Z,100292.38
2022-12-25T00:23:44.140Z,100288.00
2022-12-25T00:26:14.781Z,100283.63
2022-12-25T00:28:42.371Z,100292.31
2022-12-25T00:31:14.298Z,100307.00
2022-12-25T00:33:43.547Z,100314.00
2022-12-25T00:36:12.039Z,100315.69
2022-12-25T00:38:40.362Z,100306.03
2022-12-25T00:41:12.986Z,100314.75
2022-12-25T00:43:42.032Z,100320.00
2022-12-25T00:46:11.617Z,100314.87
2022-12-25T00:48:39.706Z,100330.44
2022-12-25T00:51:11.091Z,100337.34
2022-12-25T00:53:38.918Z,100348.53
2022-12-25T00:56:07.859Z,100338.94
2022-12-25T00:58:35.913Z,100344.19
2022-12-25T01:01:04.189Z,100339.00
2022-12-25T01:03:31.663Z,100330.38
2022-12-25T01:06:01.510Z,100326.00
2022-12-25T01:08:30.596Z,100327.75
2022-12-25T01:11:00.662Z,100332.97
2022-12-25T01:13:29.248Z,100339.09
2022-12-25T01:15:57.163Z,100342.56
2022-12-25T01:18:25.144Z,100345.16
2022-12-25T01:20:52.558Z,100341.75
2022-12-25T01:23:20.283Z,100342.56
2022-12-25T01:25:47.721Z,100346.78
2022-12-25T01:28:16.131Z,100337.28
2022-12-25T01:30:49.655Z,100326.81
2022-12-25T01:33:17.066Z,100329.41
2022-12-25T01:35:44.783Z,100339.78
2022-12-25T01:38:12.199Z,100344.00
2022-12-25T01:40:39.959Z,100363.88
2022-12-25T01:43:28.806Z,100351.75
2022-12-25T01:45:56.464Z,100353.59
2022-12-25T01:48:33.372Z,100354.44
2022-12-25T01:51:21.609Z,100361.28
2022-12-25T01:53:49.321Z,100359.59
2022-12-25T01:56:16.746Z,100356.00
2022-12-25T01:58:44.178Z,100360.28
2022-12-25T02:01:11.961Z,100359.44
2022-12-25T02:03:42.355Z,100357.75
2022-12-25T02:06:10.203Z,100358.59
2022-12-25T02:08:37.793Z,100353.22
2022-12-25T02:11:05.469Z,100348.13
2022-12-25T02:13:32.945Z,100353.19
2022-12-25T02:16:00.481Z,100357.47
2022-12-25T02:18:30.939Z,100355.69
2022-12-25T02:21:20.567Z,100366.13
2022-12-25T02:23:57.123Z,100344.63
2022-12-25T02:26:30.906Z,100349.84
2022-12-25T02:29:32.018Z,100348.91
2022-12-25T02:32:08.141Z,100354.81
2022-12-25T02:35:10.172Z,100341.97
2022-12-25T02:37:52.722Z,100345.50
2022-12-25T02:40:33.221Z,100354.19
2022-12-25T02:43:22.099Z,100354.16
2022-12-25T02:46:19.494Z,100357.41
2022-12-25T02:49:38.531Z,100360.16
2022-12-25T02:52:34.623Z,100367.31
2022-12-25T02:55:25.668Z,100371.72
2022-12-25T02:58:13.320Z,100376.16
2022-12-25T03:01:02.793Z,100375.91
2022-12-25T03:03:51.696Z,100382.22
2022-12-25T03:06:39.867Z,100382.31
2022-12-25T03:09:28.355Z,100385.06
2022-12-25T03:12:13.757Z,100398.94
2022-12-25T03:15:00.229Z,100404.97
2022-12-25T03:17:27.673Z,100411.97
2022-12-25T03:20:13.745Z,100408.38
2022-12-25T03:23:01.868Z,100399.69
2022-12-25T03:25:48.017Z,100406.69
2022-12-25T03:28:15.383Z,100402.34
2022-12-25T03:31:11.429Z,100401.25
2022-12-25T03:34:22.015Z,100404.97
2022-12-25T03:37:34.073Z,100410.09
2022-12-25T03:40:29.008Z,100416.34
2022-12-25T03:43:29.530Z,100417.59
2022-12-25T03:46:05.303Z,100438.53
2022-12-25T03:48:52.836Z,100439.31
2022-12-25T03:51:43.418Z,100442.56
2022-12-25T03:54:30.190Z,100434.13
2022-12-25T03:57:17.400Z,100439.31
2022-12-25T04:00:03.915Z,100439.88
2022-12-25T04:02:56.103Z,100442.62
2022-12-25T04:05:42.489Z,100435.84
2022-12-25T04:08:28.646Z,100440.16
2022-12-25T04:11:15.309Z,100443.72
2022-12-25T04:14:01.427Z,100438.50
2022-12-25T04:16:47.844Z,100426.53
2022-12-25T04:19:47.619Z,100424.66
2022-12-25T04:22:33.581Z,100423.50
2022-12-25T04:25:19.738Z,100427.94
2022-12-25T04:28:05.781Z,100436.69
2022-12-25T04:31:02.029Z,100437.50
2022-12-25T04:33:47.986Z,100440.06
2022-12-25T04:36:15.398Z,100437.72
2022-12-25T04:38:43.139Z,100432.53
2022-12-25T04:41:12.561Z,100436.00
2022-12-25T04:43:40.262Z,100432.41
2022-12-25T04:46:07.996Z,100425.69
2022-12-25T04:48:36.856Z,100426.50
2022-12-25T04:51:11.534Z,100423.84
2022-12-25T04:53:39.169Z,100436.69
2022-12-25T04:56:06.641Z,100434.06
2022-12-25T04:58:34.022Z,100425.59
2022-12-25T05:01:02.823Z,100437.66
2022-12-25T05:03:30.656Z,100447.16
2022-12-25T05:05:58.729Z,100444.16
2022-12-25T05:08:26.645Z,100440.13
2022-12-25T05:10:54.001Z,100436.50
2022-12-25T05:13:21.450Z,100431.09
2022-12-25T05:15:49.246Z,100435.38
2022-12-25T05:18:16.683Z,100438.06
2022-12-25T05:20:51.586Z,100442.31
2022-12-25T05:23:19.418Z,100445.31
2022-12-25T05:25:46.837Z,100450.25
2022-12-25T05:28:14.393Z,100448.34
2022-12-25T05:30:42.333Z,100460.47
2022-12-25T05:33:09.806Z,100452.12
2022-12-25T05:35:38.171Z,100441.09
2022-12-25T05:38:06.740Z,100446.25
2022-12-25T05:40:34.988Z,100447.16
2022-12-25T05:43:02.472Z,100448.84
2022-12-25T05:45:31.212Z,100449.66
2022-12-25T05:47:58.577Z,100454.88
2022-12-25T05:50:26.250Z,100457.37
2022-12-25T05:53:09.047Z,100464.19
2022-12-25T05:55:38.452Z,100470.28
2022-12-25T05:58:07.380Z,100466.72
2022-12-25T06:00:34.913Z,100465.66
2022-12-25T06:03:03.158Z,100473.50
2022-12-25T06:05:31.123Z,100469.31
2022-12-25T06:07:58.722Z,100468.97
2022-12-25T06:10:26.423Z,100464.69
2022-12-25T06:12:54.520Z,100466.59
2022-12-25T06:15:21.941Z,100464.47
2022-12-25T06:17:49.581Z,100463.91
2022-12-25T06:20:17.055Z,100441.56
2022-12-25T06:22:44.462Z,100455.56
2022-12-25T06:25:12.317Z,100456.41
2022-12-25T06:27:39.747Z,100456.50
2022-12-25T06:30:08.095Z,100458.13
2022-12-25T06:32:35.829Z,100457.28
2022-12-25T06:35:03.424Z,100460.72
2022-12-25T06:37:31.779Z,100460.75
2022-12-25T06:39:59.465Z,100464.09
2022-12-25T06:42:26.943Z,100466.72
2022-12-25T06:44:54.434Z,100475.47
2022-12-25T06:47:22.099Z,100498.47
2022-12-25T06:49:49.505Z,100493.91
2022-12-25T06:52:16.933Z,100499.88
2022-12-25T06:54:44.593Z,100501.63
2022-12-25T06:57:12.050Z,100504.16
2022-12-25T06:59:39.457Z,100511.19
2022-12-25T07:02:16.402Z,100504.19
2022-12-25T07:04:43.836Z,100505.94
2022-12-25T07:07:11.990Z,100518.03
2022-12-25T07:09:39.570Z,100518.81
2022-12-25T07:12:14.470Z,100518.28
2022-12-25T07:14:42.353Z,100526.25
2022-12-25T07:17:09.817Z,100530.44
2022-12-25T07:19:42.723Z,100532.88
2022-12-25T07:22:13.422Z,100544.25
2022-12-25T07:24:40.776Z,100563.28
2022-12-25T07:27:08.453Z,100559.00
2022-12-25T07:29:36.213Z,100557.28
2022-12-25T07:32:03.762Z,100552.03
2022-12-25T07:34:31.305Z,100548.59
2022-12-25T07:36:58.976Z,100560.09
2022-12-25T07:39:26.345Z,100565.41
2022-12-25T07:41:53.704Z,100570.75
2022-12-25T07:44:21.513Z,100570.13
2022-12-25T07:46:49.393Z,100577.06
2022-12-25T07:49:16.762Z,100580.75
2022-12-25T07:51:44.439Z,100596.50
2022-12-25T07:54:11.851Z,100602.38
2022-12-25T07:56:39.232Z,100605.78
2022-12-25T07:59:06.906Z,100603.56
2022-12-25T08:01:34.503Z,100609.81
2022-12-25T08:04:03.047Z,100612.16
2022-12-25T08:06:33.129Z,100610.63
2022-12-25T08:09:09.422Z,100613.37
2022-12-25T08:11:37.365Z,100620.06
2022-12-25T08:14:08.826Z,100615.91
2022-12-25T08:16:39.737Z,100613.53
2022-12-25T08:19:12.254Z,100621.56
2022-12-25T08:21:39.659Z,100622.31
2022-12-25T08:24:07.196Z,100617.44
2022-12-25T08:26:34.916Z,100624.63
2022-12-25T08:29:02.360Z,100623.72
2022-12-25T08:31:30.555Z,100617.84
2022-12-25T08:33:58.628Z,100622.25
2022-12-25T08:36:26.360Z,100619.81
2022-12-25T08:39:00.386Z,100617.41
2022-12-25T08:41:30.593Z,100617.53
2022-12-25T08:43:58.276Z,100620.34
2022-12-25T08:46:25.797Z,100617.75
2022-12-25T08:48:53.704Z,100619.50
2022-12-25T08:51:22.290Z,100616.03
2022-12-25T08:53:51.054Z,100620.41
2022-12-25T08:56:20.019Z,100616.94
2022-12-25T08:58:47.416Z,100628.31
2022-12-25T09:01:14.899Z,100624.97
2022-12-25T09:03:43.506Z,100629.44
2022-12-25T09:06:15.820Z,100632.09
2022-12-25T09:08:48.568Z,100629.56
2022-12-25T09:11:18.141Z,100627.69
2022-12-25T09:13:46.157Z,100634.66
2022-12-25T09:16:16.719Z,100628.56
2022-12-25T09:18:44.166Z,100631.31
2022-12-25T09:21:13.520Z,100628.91
2022-12-25T09:23:41.411Z,100628.94
2022-12-25T09:26:11.853Z,100620.22
2022-12-25T09:28:41.629Z,100622.81
2022-12-25T09:31:12.730Z,100609.78
2022-12-25T09:33:40.463Z,100625.41
2022-12-25T09:36:09.183Z,100615.88
2022-12-25T09:38:37.347Z,100616.78
2022-12-25T09:41:14.984Z,100630.72
2022-12-25T09:44:12.973Z,100622.00
2022-12-25T09:46:43.658Z,100631.59
2022-12-25T09:49:20.933Z,100631.59
2022-12-25T09:51:59.713Z,100624.63
2022-12-25T09:54:42.253Z,100625.47
2022-12-25T09:57:12.150Z,100628.09
2022-12-25T09:59:40.108Z,100635.94
2022-12-25T10:02:47.134Z,100631.56
2022-12-25T10:05:36.341Z,100629.84
2022-12-25T10:08:22.233Z,100634.22
2022-12-25T10:10:54.887Z,100623.75
2022-12-25T10:13:37.443Z,100627.22
2022-12-25T10:16:26.175Z,100614.16
2022-12-25T10:19:03.004Z,100609.81
2022-12-25T10:21:31.010Z,100608.03
2022-12-25T10:23:58.311Z,100608.91
2022-12-25T10:26:26.326Z,100608.03
2022-12-25T10:29:04.025Z,100615.03
2022-12-25T10:31:35.149Z,100608.03
2022-12-25T10:34:03.769Z,100599.31
2022-12-25T10:36:31.783Z,100600.16
2022-12-25T10:38:59.186Z,100604.53
2022-12-25T10:41:48.221Z,100606.28
2022-12-25T10:44:20.287Z,100599.28
2022-12-25T10:46:48.536Z,100598.38
2022-12-25T10:49:17.291Z,100601.88
2022-12-25T10:51:44.818Z,100599.31
2022-12-25T10:54:37.556Z,100596.63
2022-12-25T10:57:16.348Z,100603.59
2022-12-25T10:59:46.326Z,100602.72
2022-12-25T11:02:31.639Z,100599.19
2022-12-25T11:05:07.974Z,100591.38
2022-12-25T11:07:46.618Z,100586.16
2022-12-25T11:10:29.642Z,100580.00
2022-12-25T11:12:58.413Z,100571.16
2022-12-25T11:15:44.869Z,100569.44
2022-12-25T11:18:21.600Z,100565.81
2022-12-25T11:20:50.040Z,100561.41
2022-12-25T11:23:20.208Z,100565.78
2022-12-25T11:25:59.399Z,100559.81
2022-12-25T11:28:28.732Z,100554.56
2022-12-25T11:31:19.184Z,100557.12
2022-12-25T11:33:56.261Z,100553.59
2022-12-25T11:36:43.529Z,100555.37
2022-12-25T11:39:24.084Z,100550.94
2022-12-25T11:41:55.262Z,100558.75
2022-12-25T11:44:30.575Z,100554.41
2022-12-25T11:47:03.692Z,100553.53
2022-12-25T11:49:35.332Z,100555.19
2022-12-25T11:52:02.843Z,100553.47
2022-12-25T11:54:44.487Z,100554.25
2022-12-25T11:57:12.939Z,100549.88
2022-12-25T11:59:53.460Z,100545.41
2022-12-25T12:02:32.061Z,100548.13
2022-12-25T12:05:15.507Z,100543.75
2022-12-25T12:08:04.581Z,100539.31
2022-12-25T12:10:37.890Z,100534.91
2022-12-25T12:13:17.776Z,100535.69
2022-12-25T12:15:47.565Z,100539.13
2022-12-25T12:18:29.300Z,100538.37
2022-12-25T12:21:23.488Z,100544.53
2022-12-25T12:24:06.014Z,100545.28
2022-12-25T12:26:40.836Z,100541.75
2022-12-25T12:29:22.539Z,100547.75
2022-12-25T12:31:50.580Z,100546.84
2022-12-25T12:34:49.315Z,100550.28
2022-12-25T12:37:31.915Z,100551.19
2022-12-25T12:39:59.835Z,100545.87
2022-12-25T12:42:30.238Z,100538.84
2022-12-25T12:45:17.103Z,100543.28
2022-12-25T12:47:47.956Z,100547.66
2022-12-25T12:50:35.974Z,100555.50
2022-12-25T12:53:22.198Z,100552.88
2022-12-25T12:55:50.782Z,100559.25
2022-12-25T12:58:33.465Z,100551.31
2022-12-25T13:01:06.891Z,100561.81
2022-12-25T13:04:00.708Z,100567.09
2022-12-25T13:06:49.483Z,100567.88
2022-12-25T13:09:43.626Z,100565.34
2022-12-25T13:12:12.257Z,100567.06
2022-12-25T13:14:45.391Z,100562.87
2022-12-25T13:17:15.709Z,100564.50
2022-12-25T13:19:44.063Z,100561.06
2022-12-25T13:22:24.381Z,100561.06
2022-12-25T13:24:59.140Z,100555.03
2022-12-25T13:27:29.144Z,100554.12
2022-12-25T13:29:57.431Z,100553.19
2022-12-25T13:32:32.889Z,100559.37
2022-12-25T13:35:00.915Z,100554.94
2022-12-25T13:37:30.937Z,100562.84
2022-12-25T13:40:03.507Z,100563.78
2022-12-25T13:42:36.696Z,100559.41
2022-12-25T13:45:19.894Z,100555.84
2022-12-25T13:47:53.057Z,100570.72
2022-12-25T13:50:34.023Z,100562.78
2022-12-25T13:53:16.681Z,100562.03
2022-12-25T13:55:50.183Z,100567.28
2022-12-25T13:58:39.245Z,100570.78
2022-12-25T14:01:06.855Z,100560.22
2022-12-25T14:03:41.824Z,100563.75
2022-12-25T14:06:19.830Z,100555.84
2022-12-25T14:08:48.072Z,100556.78
2022-12-25T14:11:20.406Z,100570.78
2022-12-25T14:13:49.865Z,100565.66
2022-12-25T14:16:18.481Z,100558.69
2022-12-25T14:19:23.340Z,100563.06
2022-12-25T14:21:54.865Z,100567.44
2022-12-25T14:24:24.199Z,100564.97
2022-12-25T14:27:04.414Z,100568.44
2022-12-25T14:29:37.025Z,100572.78
2022-12-25T14:32:06.709Z,100582.41
2022-12-25T14:34:34.533Z,100576.25
2022-12-25T14:37:03.447Z,100583.25
2022-12-25T14:39:31.237Z,100583.31
2022-12-25T14:41:58.954Z,100585.97
2022-12-25T14:44:38.705Z,100587.78
2022-12-25T14:47:16.517Z,100598.31
2022-12-25T14:49:44.724Z,100590.44
2022-12-25T14:52:21.343Z,100591.34
2022-12-25T14:54:52.597Z,100583.53
2022-12-25T14:57:29.136Z,100586.16
2022-12-25T14:59:59.474Z,100587.03
2022-12-25T15:02:27.712Z,100587.09
2022-12-25T15:04:55.264Z,100593.19
2022-12-25T15:07:31.343Z,100588.81
2022-12-25T15:10:27.226Z,100586.22
2022-12-25T15:12:46.431Z,100597.56
2022-12-25T15:15:14.127Z,100604.53
2022-12-25T15:17:41.820Z,100598.44
2022-12-25T15:20:12.599Z,100600.19
2022-12-25T15:23:10.279Z,100592.31
2022-12-25T15:25:28.919Z,100585.38
2022-12-25T15:27:56.619Z,100586.25
2022-12-25T15:30:24.063Z,100588.88
2022-12-25T15:32:51.478Z,100586.25
2022-12-25T15:35:20.887Z,100589.75
2022-12-25T15:37:48.333Z,100587.16
2022-12-25T15:40:16.569Z,100588.00
2022-12-25T15:42:44.943Z,100595.84
2022-12-25T15:45:22.095Z,100602.84
2022-12-25T15:47:49.915Z,100593.25
2022-12-25T15:50:18.791Z,100605.44
2022-12-25T15:52:47.327Z,100599.34
2022-12-25T15:55:15.683Z,100593.25
2022-12-25T15:57:44.874Z,100586.28
2022-12-25T16:00:18.898Z,100588.91
2022-12-25T16:02:46.870Z,100595.88
2022-12-25T16:05:14.436Z,100590.66
2022-12-25T16:07:41.930Z,100592.38
2022-12-25T16:10:18.550Z,100593.25
2022-12-25T16:12:46.385Z,100599.34
2022-12-25T16:15:15.290Z,100594.13
2022-12-25T16:17:42.734Z,100591.50
2022-12-25T16:20:10.613Z,100592.38
2022-12-25T16:22:40.941Z,100585.41
2022-12-25T16:25:16.918Z,100589.78
2022-12-25T16:27:45.233Z,100585.41
2022-12-25T16:30:15.331Z,100585.41
2022-12-25T16:32:44.190Z,100587.16
2022-12-25T16:35:12.209Z,100581.03
2022-12-25T16:37:39.687Z,100576.69
2022-12-25T16:40:09.561Z,100573.22
2022-12-25T16:42:38.049Z,100570.59
2022-12-25T16:45:06.180Z,100571.44
2022-12-25T16:47:33.828Z,100581.03
2022-12-25T16:50:03.475Z,100575.81
2022-12-25T16:52:34.657Z,100568.00
2022-12-25T16:55:03.570Z,100574.06
2022-12-25T16:57:32.112Z,100573.19
2022-12-25T16:59:59.983Z,100569.72
2022-12-25T17:02:28.037Z,100565.34
2022-12-25T17:04:55.525Z,100561.03
2022-12-25T17:07:23.275Z,100565.34
2022-12-25T17:09:51.064Z,100567.97
2022-12-25T17:12:18.548Z,100559.25
2022-12-25T17:14:45.944Z,100565.38
2022-12-25T17:17:13.632Z,100567.97
2022-12-25T17:19:41.636Z,100570.59
2022-12-25T17:22:09.087Z,100572.31
2022-12-25T17:24:37.559Z,100567.09
2022-12-25T17:27:08.568Z,100568.84
2022-12-25T17:29:36.725Z,100567.94
2022-12-25T17:32:04.417Z,100567.09
2022-12-25T17:34:31.857Z,100563.63
2022-12-25T17:36:59.780Z,100548.81
2022-12-25T17:39:27.580Z,100550.53
2022-12-25T17:41:55.370Z,100533.13
2022-12-25T17:44:23.097Z,100534.88
2022-12-25T17:46:51.245Z,100542.72
2022-12-25T17:49:20.953Z,100552.31
2022-12-25T17:51:48.886Z,100547.97
2022-12-25T17:54:16.695Z,100549.69
2022-12-25T17:56:44.313Z,100545.34
2022-12-25T17:59:18.033Z,100536.63
2022-12-25T18:01:47.212Z,100547.94
2022-12-25T18:04:15.267Z,100554.00
2022-12-25T18:06:43.078Z,100545.34
2022-12-25T18:09:11.592Z,100540.06
2022-12-25T18:11:41.307Z,100544.38
2022-12-25T18:14:12.476Z,100547.84
2022-12-25T18:16:43.122Z,100549.59
2022-12-25T18:19:15.039Z,100534.78
2022-12-25T18:21:42.816Z,100536.53
2022-12-25T18:24:11.134Z,100538.28
2022-12-25T18:26:38.575Z,100533.09
2022-12-25T18:29:07.101Z,100526.09
2022-12-25T18:31:34.706Z,100521.78
2022-12-25T18:34:03.813Z,100526.16
2022-12-25T18:36:31.631Z,100534.88
2022-12-25T18:38:59.340Z,100539.22
2022-12-25T18:41:28.392Z,100531.38
2022-12-25T18:43:56.372Z,100533.13
2022-12-25T18:46:26.116Z,100528.78
2022-12-25T18:48:55.704Z,100529.66
2022-12-25T18:51:23.591Z,100519.22
2022-12-25T18:53:51.491Z,100529.66
2022-12-25T18:56:20.226Z,100518.31
2022-12-25T18:58:48.499Z,100519.19
2022-12-25T19:01:26.223Z,100520.94
2022-12-25T19:04:00.166Z,100522.69
2022-12-25T19:06:33.190Z,100513.09
2022-12-25T19:09:05.526Z,100514.00
2022-12-25T19:11:32.934Z,100507.00
2022-12-25T19:14:00.630Z,100508.75
2022-12-25T19:16:28.096Z,100512.22
2022-12-25T19:18:55.537Z,100503.50
2022-12-25T19:21:23.466Z,100509.62
2022-12-25T19:23:51.203Z,100510.50
2022-12-25T19:26:18.615Z,100514.84
2022-12-25T19:28:46.393Z,100518.34
2022-12-25T19:31:14.099Z,100520.94
2022-12-25T19:33:42.314Z,100514.84
2022-12-25T19:36:12.451Z,100523.56
2022-12-25T19:38:40.434Z,100530.53
2022-12-25T19:41:08.959Z,100529.66
2022-12-25T19:43:39.061Z,100524.41
2022-12-25T19:46:08.525Z,100513.94
2022-12-25T19:48:36.266Z,100512.13
2022-12-25T19:51:04.000Z,100505.16
2022-12-25T19:53:31.450Z,100508.69
2022-12-25T19:56:01.790Z,100503.47
2022-12-25T19:58:29.960Z,100501.75
2022-12-25T20:01:07.317Z,100503.50
2022-12-25T20:03:38.821Z,100488.66
2022-12-25T20:06:24.650Z,100482.56
2022-12-25T20:08:55.413Z,100471.25
2022-12-25T20:11:24.094Z,100466.91
2022-12-25T20:13:52.065Z,100468.66
2022-12-25T20:16:19.883Z,100473.91
2022-12-25T20:18:47.464Z,100476.53
2022-12-25T20:21:17.889Z,100482.62
2022-12-25T20:23:46.775Z,100483.47
2022-12-25T20:26:15.772Z,100482.62
2022-12-25T20:28:44.347Z,100476.53
2022-12-25T20:31:21.470Z,100472.19
2022-12-25T20:33:50.224Z,100467.81
2022-12-25T20:36:18.853Z,100468.72
2022-12-25T20:38:46.683Z,100459.12
2022-12-25T20:41:32.432Z,100463.50
2022-12-25T20:44:01.769Z,100461.72
2022-12-25T20:46:29.673Z,100466.09
2022-12-25T20:48:57.176Z,100458.25
2022-12-25T20:51:25.675Z,100452.16
2022-12-25T20:53:54.204Z,100454.78
2022-12-25T20:56:24.778Z,100454.78
2022-12-25T20:58:59.929Z,100467.81
2022-12-25T21:01:29.602Z,100466.97
2022-12-25T21:03:58.112Z,100466.06
2022-12-25T21:06:25.648Z,100467.81
2022-12-25T21:08:53.446Z,100468.72
2022-12-25T21:11:21.882Z,100456.50
2022-12-25T21:13:49.964Z,100446.94
2022-12-25T21:16:20.499Z,100446.06
2022-12-25T21:18:51.149Z,100448.66
2022-12-25T21:21:19.911Z,100449.53
2022-12-25T21:23:47.954Z,100458.22
2022-12-25T21:26:20.857Z,100453.00
2022-12-25T21:28:49.981Z,100448.66
2022-12-25T21:31:19.097Z,100450.41
2022-12-25T21:33:52.951Z,100453.91
2022-12-25T21:36:24.331Z,100453.03
2022-12-25T21:39:02.766Z,100443.47
2022-12-25T21:41:32.097Z,100439.97
2022-12-25T21:43:59.645Z,100435.59
2022-12-25T21:46:27.983Z,100430.37
2022-12-25T21:48:55.956Z,100420.78
2022-12-25T21:51:50.486Z,100421.69
2022-12-25T21:54:19.854Z,100430.37
2022-12-25T21:56:47.955Z,100444.31
2022-12-25T21:59:18.064Z,100448.69
2022-12-25T22:01:46.375Z,100446.94
2022-12-25T22:04:15.151Z,100455.62
2022-12-25T22:07:01.897Z,100458.25
2022-12-25T22:09:29.681Z,100463.47
2022-12-25T22:12:16.579Z,100458.25
2022-12-25T22:14:54.647Z,100455.62
2022-12-25T22:17:44.141Z,100463.47
2022-12-25T22:20:15.039Z,100462.59
2022-12-25T22:22:42.875Z,100457.37
2022-12-25T22:25:11.091Z,100453.91
2022-12-25T22:27:39.918Z,100444.31
2022-12-25T22:30:10.931Z,100445.19
2022-12-25T22:32:38.974Z,100438.22
2022-12-25T22:35:07.039Z,100439.09
2022-12-25T22:37:35.897Z,100440.84
2022-12-25T22:40:05.368Z,100437.34
2022-12-25T22:42:33.060Z,100442.56
2022-12-25T22:45:00.502Z,100450.41
2022-12-25T22:47:28.316Z,100456.50
2022-12-25T22:49:55.754Z,100453.00
2022-12-25T22:52:23.160Z,100448.69
2022-12-25T22:54:50.938Z,100442.56
2022-12-25T22:57:18.642Z,100442.56
2022-12-25T22:59:46.692Z,100444.31
2022-12-25T23:02:14.515Z,100434.75
2022-12-25T23:04:42.144Z,100429.53
2022-12-25T23:07:10.875Z,100419.94
2022-12-25T23:09:38.566Z,100415.56
2022-12-25T23:12:06.365Z,100421.66
2022-12-25T23:14:39.548Z,100434.75
2022-12-25T23:17:30.513Z,100434.75
2022-12-25T23:20:18.062Z,100434.75
2022-12-25T23:23:05.550Z,100438.25
2022-12-25T23:25:53.240Z,100442.56
2022-12-25T23:28:39.769Z,100438.19
2022-12-25T23:31:07.256Z,100439.06
2022-12-25T23:33:35.079Z,100433.87
2022-12-25T23:36:02.515Z,100441.69
2022-12-25T23:38:29.940Z,100434.75
2022-12-25T23:40:57.597Z,100416.47
2022-12-25T23:43:25.686Z,100417.31
2022-12-25T23:45:53.281Z,100409.47
2022-12-25T23:48:21.069Z,100412.94
2022-12-25T23:50:48.550Z,100407.75
2022-12-25T23:53:15.987Z,100410.34
2022-12-25T23:55:43.698Z,100405.12
2022-12-25T23:58:11.128Z,100410.34
